createdAt,value
2017-09-06T08:46:18.142Z,18.31
2017-09-06T08:46:42.820Z,18.22
2017-09-06T08:48:37.390Z,18.15
2017-09-06T08:49:37.833Z,18.15
2017-09-06T08:51:33.379Z,18.25
2017-09-06T08:52:33.823Z,18.22
2017-09-06T08:54:28.448Z,18.34
2017-09-06T08:55:28.826Z,18.34
2017-09-06T08:57:23.394Z,18.22
2017-09-06T08:58:23.830Z,18.19
2017-09-06T09:00:18.393Z,18.23
2017-09-06T09:01:18.850Z,18.37
2017-09-06T09:03:13.404Z,18.22
2017-09-06T09:04:13.849Z,18.31
2017-09-06T09:06:08.410Z,18.40
2017-09-06T09:07:08.851Z,18.43
2017-09-06T09:09:03.411Z,18.41
2017-09-06T09:10:03.853Z,18.47
2017-09-06T09:11:58.415Z,18.47
2017-09-06T09:12:58.860Z,18.45
2017-09-06T09:14:54.430Z,18.53
2017-09-06T09:15:54.842Z,18.56
2017-09-06T09:17:49.404Z,18.65
2017-09-06T09:18:49.849Z,18.63
2017-09-06T09:20:44.458Z,18.62
2017-09-06T09:21:44.901Z,18.71
2017-09-06T09:23:39.461Z,18.71
2017-09-06T09:24:39.903Z,18.77
2017-09-06T09:26:34.480Z,18.73
2017-09-06T09:27:34.902Z,18.56
2017-09-06T09:29:29.474Z,18.34
2017-09-06T09:30:29.917Z,18.31
2017-09-06T09:32:24.486Z,18.52
2017-09-06T09:33:24.929Z,18.47
2017-09-06T09:35:19.500Z,18.62
2017-09-06T09:36:19.939Z,18.70
2017-09-06T09:38:14.527Z,18.55
2017-09-06T09:39:14.950Z,18.52
2017-09-06T09:41:09.517Z,18.70
2017-09-06T09:42:09.954Z,18.70
2017-09-06T09:44:05.509Z,18.73
2017-09-06T09:45:05.966Z,18.62
2017-09-06T09:47:00.515Z,18.71
2017-09-06T09:48:00.958Z,18.77
2017-09-06T09:49:56.525Z,19.04
2017-09-06T09:50:56.945Z,19.19
2017-09-06T09:52:52.490Z,18.95
2017-09-06T09:53:52.939Z,18.96
2017-09-06T09:54:53.376Z,18.90
2017-09-06T09:55:53.810Z,19.21
2017-09-06T09:56:54.255Z,19.39
2017-09-06T09:57:54.690Z,19.52
2017-09-06T09:58:55.128Z,19.76
2017-09-06T09:59:55.566Z,20.07
2017-09-06T10:00:56.002Z,20.16
2017-09-06T10:01:56.443Z,20.21
2017-09-06T10:02:56.882Z,20.24
2017-09-06T10:03:57.324Z,20.31
2017-09-06T10:04:57.765Z,20.28
2017-09-06T10:05:58.203Z,20.50
2017-09-06T10:06:58.672Z,20.43
2017-09-06T10:07:59.083Z,20.31
2017-09-06T10:08:59.522Z,20.50
2017-09-06T10:09:59.995Z,20.65
2017-09-06T10:11:00.406Z,20.74
2017-09-06T10:12:00.842Z,20.72
2017-09-06T10:13:01.287Z,20.77
2017-09-06T10:14:01.744Z,20.65
2017-09-06T10:15:02.165Z,20.70
2017-09-06T10:16:02.607Z,20.82
2017-09-06T10:17:03.058Z,20.47
2017-09-06T10:18:03.491Z,20.66
2017-09-06T10:19:03.925Z,20.74
2017-09-06T10:20:04.376Z,20.96
2017-09-06T10:21:04.807Z,21.18
2017-09-06T10:22:05.246Z,21.15
2017-09-06T10:23:05.698Z,21.25
2017-09-06T10:24:06.133Z,21.22
2017-09-06T10:25:06.572Z,21.12
2017-09-06T10:26:07.015Z,20.52
2017-09-06T10:27:07.459Z,20.40
2017-09-06T10:28:07.900Z,20.21
2017-09-06T10:29:08.342Z,20.16
2017-09-06T10:30:08.786Z,20.31
2017-09-06T10:31:09.225Z,20.47
2017-09-06T10:32:09.665Z,20.32
2017-09-06T10:33:10.112Z,20.81
2017-09-06T10:34:10.547Z,20.85
2017-09-06T10:35:10.992Z,20.65
2017-09-06T10:36:11.472Z,20.88
2017-09-06T10:37:11.878Z,21.00
2017-09-06T10:38:12.353Z,20.90
2017-09-06T10:39:12.773Z,20.87
2017-09-06T10:40:13.205Z,21.25
2017-09-06T10:41:13.657Z,21.95
2017-09-06T10:42:14.089Z,22.32
2017-09-06T10:43:14.533Z,22.75
2017-09-06T10:44:14.981Z,22.54
2017-09-06T10:45:15.426Z,22.94
2017-09-06T10:46:15.875Z,23.25
2017-09-06T10:47:16.328Z,23.28
2017-09-06T10:48:16.761Z,23.54
2017-09-06T10:49:17.204Z,23.58
2017-09-06T10:50:17.650Z,23.12
2017-09-06T10:51:18.171Z,23.43
2017-09-06T10:52:18.529Z,23.13
2017-09-06T10:53:19.013Z,23.03
2017-09-06T10:54:19.431Z,22.73
2017-09-06T10:55:19.880Z,22.87
2017-09-06T10:56:20.323Z,22.62
2017-09-06T10:57:20.806Z,22.66
2017-09-06T10:58:21.234Z,22.73
2017-09-06T10:59:21.658Z,22.51
2017-09-06T11:00:22.099Z,22.22
2017-09-06T11:01:22.541Z,22.18
2017-09-06T11:02:23.010Z,22.08
2017-09-06T11:03:23.444Z,22.23
2017-09-06T11:04:23.889Z,22.23
2017-09-06T11:05:24.339Z,22.23
2017-09-06T11:06:24.774Z,22.26
2017-09-06T11:07:25.214Z,22.29
2017-09-06T11:08:25.679Z,22.22
2017-09-06T11:09:26.119Z,22.33
2017-09-06T11:10:26.562Z,22.23
2017-09-06T11:11:26.988Z,21.96
2017-09-06T11:12:27.431Z,21.98
2017-09-06T11:13:27.933Z,21.88
2017-09-06T11:14:28.316Z,21.67
2017-09-06T11:15:28.776Z,21.88
2017-09-06T11:16:29.202Z,21.92
2017-09-06T11:17:29.642Z,21.92
2017-09-06T11:18:30.087Z,21.95
2017-09-06T11:19:30.530Z,22.13
2017-09-06T11:20:30.971Z,22.07
2017-09-06T11:21:31.416Z,21.83
2017-09-06T11:22:31.866Z,21.60
2017-09-06T11:23:32.305Z,21.17
2017-09-06T11:24:32.738Z,21.32
2017-09-06T11:25:33.182Z,21.20
2017-09-06T11:26:33.626Z,21.15
2017-09-06T11:27:34.067Z,21.29
2017-09-06T11:28:34.512Z,21.60
2017-09-06T11:29:34.954Z,21.82
2017-09-06T11:30:35.394Z,21.82
2017-09-06T11:31:35.928Z,21.69
2017-09-06T11:32:36.269Z,21.82
2017-09-06T11:33:36.721Z,21.42
2017-09-06T11:34:37.166Z,21.62
2017-09-06T11:35:37.609Z,21.40
2017-09-06T11:36:38.050Z,21.58
2017-09-06T11:37:38.493Z,21.40
2017-09-06T11:38:38.936Z,21.50
2017-09-06T11:39:39.377Z,21.48
2017-09-06T11:42:19.682Z,21.40
2017-09-06T11:43:13.392Z,21.58
2017-09-06T11:45:07.964Z,22.29
2017-09-06T11:46:08.413Z,22.32
2017-09-06T11:48:02.985Z,22.63
2017-09-06T11:49:03.434Z,22.55
2017-09-06T11:50:58.014Z,22.39
2017-09-06T11:51:58.460Z,22.06
2017-09-06T11:53:53.033Z,22.23
2017-09-06T11:54:53.486Z,22.51
2017-09-06T11:56:49.255Z,22.70
2017-09-06T11:57:49.692Z,22.70
2017-09-06T11:59:45.243Z,22.96
2017-09-06T12:00:45.698Z,23.02
2017-09-06T12:02:41.256Z,23.03
2017-09-06T12:03:41.705Z,22.96
2017-09-06T12:05:36.282Z,22.85
2017-09-06T12:06:36.776Z,23.03
2017-09-06T12:08:32.291Z,23.09
2017-09-06T12:09:32.731Z,23.06
2017-09-06T12:11:27.330Z,22.96
2017-09-06T12:12:27.763Z,23.34
2017-09-06T12:14:22.333Z,23.41
2017-09-06T12:15:22.797Z,23.36
2017-09-06T12:17:17.363Z,23.39
2017-09-06T12:18:17.817Z,23.58
2017-09-06T12:20:13.380Z,23.12
2017-09-06T12:21:13.834Z,23.44
2017-09-06T12:23:08.448Z,22.87
2017-09-06T12:24:08.870Z,23.03
2017-09-06T12:26:03.449Z,23.20
2017-09-06T12:27:03.898Z,23.23
2017-09-06T12:28:58.472Z,23.25
2017-09-06T12:29:58.925Z,23.46
2017-09-06T12:31:54.023Z,23.73
2017-09-06T12:32:54.467Z,23.66
2017-09-06T12:34:49.138Z,23.87
2017-09-06T12:35:49.508Z,23.00
2017-09-06T12:37:44.095Z,23.65
2017-09-06T12:38:44.542Z,23.96
2017-09-06T12:40:39.121Z,24.08
2017-09-06T12:41:39.576Z,24.28
2017-09-06T12:43:34.155Z,24.11
2017-09-06T12:44:34.612Z,23.62
2017-09-06T12:46:29.197Z,24.14
2017-09-06T12:47:29.647Z,24.30
2017-09-06T12:49:24.229Z,23.15
2017-09-06T12:50:24.683Z,23.23
2017-09-06T12:52:19.257Z,23.25
2017-09-06T12:53:19.712Z,23.00
2017-09-06T12:55:14.307Z,23.44
2017-09-06T12:56:14.748Z,23.51
2017-09-06T12:58:09.335Z,23.63
2017-09-06T12:59:09.781Z,23.62
2017-09-06T13:01:04.397Z,23.54
2017-09-06T13:02:04.817Z,23.37
2017-09-06T13:04:00.381Z,22.94
2017-09-06T13:05:00.825Z,22.88
2017-09-06T13:06:55.423Z,22.73
2017-09-06T13:07:55.864Z,22.73
2017-09-06T13:09:51.425Z,23.03
2017-09-06T13:10:51.878Z,22.70
2017-09-06T13:12:46.440Z,23.17
2017-09-06T13:13:46.892Z,23.34
2017-09-06T13:15:41.472Z,23.58
2017-09-06T13:16:41.924Z,23.61
2017-09-06T13:18:36.497Z,22.93
2017-09-06T13:19:36.949Z,23.02
2017-09-06T13:21:31.529Z,23.03
2017-09-06T13:22:31.993Z,23.31
2017-09-06T13:24:27.566Z,23.48
2017-09-06T13:25:28.020Z,23.50
2017-09-06T13:27:23.674Z,23.46
2017-09-06T13:28:24.043Z,23.46
2017-09-06T13:30:18.630Z,23.54
2017-09-06T13:31:19.075Z,23.20
2017-09-06T13:33:13.650Z,22.99
2017-09-06T13:34:14.149Z,23.32
2017-09-06T13:36:08.684Z,23.59
2017-09-06T13:37:09.132Z,23.62
2017-09-06T13:39:03.697Z,23.55
2017-09-06T13:40:04.153Z,23.47
2017-09-06T13:41:58.741Z,23.48
2017-09-06T13:42:59.176Z,23.13
2017-09-06T13:44:53.752Z,23.37
2017-09-06T13:45:54.213Z,23.41
2017-09-06T13:47:48.800Z,23.62
2017-09-06T13:48:49.233Z,23.21
2017-09-06T13:50:43.814Z,23.39
2017-09-06T13:51:44.263Z,23.31
2017-09-06T13:53:38.839Z,23.34
2017-09-06T13:54:39.290Z,23.34
2017-09-06T13:56:33.877Z,23.31
2017-09-06T13:57:34.323Z,23.31
2017-09-06T13:59:28.933Z,23.31
2017-09-06T14:00:29.387Z,23.24
2017-09-06T14:02:24.941Z,23.10
2017-09-06T14:03:25.388Z,22.99
2017-09-06T14:05:19.959Z,22.98
2017-09-06T14:06:20.418Z,22.80
2017-09-06T14:08:14.993Z,20.99
2017-09-06T14:09:15.440Z,20.31
2017-09-06T14:11:10.019Z,19.74
2017-09-06T14:12:10.464Z,19.58
2017-09-06T14:14:05.052Z,19.47
2017-09-06T14:15:05.545Z,19.41
2017-09-06T14:17:00.063Z,19.11
2017-09-06T14:18:00.525Z,19.04
2017-09-06T14:19:56.593Z,19.08
2017-09-06T14:20:57.036Z,18.92
2017-09-06T14:22:51.613Z,18.74
2017-09-06T14:23:52.048Z,18.71
2017-09-06T14:25:46.611Z,18.81
2017-09-06T14:26:47.091Z,18.81
2017-09-06T14:28:41.621Z,18.83
2017-09-06T14:29:42.071Z,18.96
2017-09-06T14:31:36.645Z,18.88
2017-09-06T14:32:37.094Z,19.04
2017-09-06T14:34:31.639Z,19.15
2017-09-06T14:35:32.100Z,19.21
2017-09-06T14:37:27.635Z,19.21
2017-09-06T14:38:28.074Z,19.26
2017-09-06T14:40:22.644Z,19.11
2017-09-06T14:41:23.083Z,19.07
2017-09-06T14:43:17.668Z,19.14
2017-09-06T14:44:18.097Z,19.16
2017-09-06T14:46:13.644Z,19.09
2017-09-06T14:47:14.087Z,19.07
2017-09-06T14:49:08.645Z,19.11
2017-09-06T14:50:09.091Z,19.15
2017-09-06T14:52:03.655Z,19.21
2017-09-06T14:53:04.105Z,19.19
2017-09-06T14:54:58.660Z,19.33
2017-09-06T14:55:59.189Z,19.31
2017-09-06T14:57:53.661Z,19.29
2017-09-06T14:58:54.109Z,19.37
2017-09-06T15:00:48.666Z,19.40
2017-09-06T15:01:49.115Z,19.54
2017-09-06T15:03:43.703Z,19.54
2017-09-06T15:04:44.125Z,19.66
2017-09-06T15:06:38.701Z,19.74
2017-09-06T15:07:39.160Z,19.82
2017-09-06T15:09:33.712Z,19.73
2017-09-06T15:10:34.155Z,19.70
2017-09-06T15:12:29.707Z,19.64
2017-09-06T15:13:30.151Z,19.81
2017-09-06T15:15:25.700Z,19.85
2017-09-06T15:16:26.141Z,19.86
2017-09-06T15:18:21.556Z,19.63
2017-09-06T15:19:22.000Z,19.55
2017-09-06T15:21:16.621Z,19.54
2017-09-06T15:22:17.015Z,19.76
2017-09-06T15:24:12.585Z,19.58
2017-09-06T15:25:13.034Z,19.56
2017-09-06T15:27:07.599Z,19.63
2017-09-06T15:28:08.043Z,19.71
2017-09-06T15:30:02.619Z,19.56
2017-09-06T15:31:03.060Z,19.63
2017-09-06T15:32:57.623Z,19.56
2017-09-06T15:33:58.072Z,19.51
2017-09-06T15:35:52.626Z,19.71
2017-09-06T15:36:53.069Z,19.74
2017-09-06T15:38:47.664Z,19.74
2017-09-06T15:39:48.089Z,19.70
2017-09-06T15:41:42.661Z,19.66
2017-09-06T15:42:43.096Z,19.70
2017-09-06T15:44:37.665Z,19.63
2017-09-06T15:45:38.109Z,19.55
2017-09-06T15:47:32.666Z,19.34
2017-09-06T15:48:33.125Z,19.48
2017-09-06T15:50:27.675Z,19.54
2017-09-06T15:51:28.112Z,19.58
2017-09-06T15:53:22.687Z,19.63
2017-09-06T15:54:23.127Z,19.67
2017-09-06T15:56:18.669Z,19.51
2017-09-06T15:57:19.108Z,19.40
2017-09-06T15:59:14.662Z,19.29
2017-09-06T16:00:15.102Z,19.26
2017-09-06T16:02:09.899Z,19.29
2017-09-06T16:03:10.341Z,19.36
2017-09-06T16:05:04.911Z,19.29
2017-09-06T16:06:05.356Z,19.26
2017-09-06T16:08:00.901Z,19.16
2017-09-06T16:09:01.341Z,19.16
2017-09-06T16:10:55.922Z,19.30
2017-09-06T16:11:56.359Z,19.24
2017-09-06T16:13:51.932Z,19.29
2017-09-06T16:14:52.378Z,19.22
2017-09-06T16:16:46.939Z,19.33
2017-09-06T16:17:47.482Z,19.29
2017-09-06T16:19:41.957Z,19.31
2017-09-06T16:20:42.486Z,19.09
2017-09-06T16:22:36.983Z,19.22
2017-09-06T16:23:37.401Z,19.31
2017-09-06T16:25:31.951Z,19.22
2017-09-06T16:26:32.402Z,19.11
2017-09-06T16:28:26.961Z,19.07
2017-09-06T16:29:27.404Z,19.07
2017-09-06T16:31:21.969Z,19.26
2017-09-06T16:32:22.407Z,19.33
2017-09-06T16:34:17.954Z,19.22
2017-09-06T16:35:18.410Z,19.14
2017-09-06T16:37:12.958Z,19.18
2017-09-06T16:38:13.398Z,19.29
2017-09-06T16:40:07.964Z,19.29
2017-09-06T16:41:08.407Z,19.36
2017-09-06T16:43:06.941Z,19.31
2017-09-06T16:44:07.385Z,19.33
2017-09-06T16:45:07.835Z,19.33
2017-09-06T16:46:08.263Z,19.31
2017-09-06T16:47:08.696Z,19.36
2017-09-06T16:48:09.141Z,19.15
2017-09-06T16:49:09.600Z,19.12
2017-09-06T16:50:10.009Z,19.15
2017-09-06T16:51:10.448Z,19.15
2017-09-06T16:52:10.881Z,19.18
2017-09-06T16:53:11.323Z,19.14
2017-09-06T16:54:11.752Z,19.02
2017-09-06T16:55:12.194Z,19.21
2017-09-06T16:56:12.630Z,19.16
2017-09-06T16:57:13.066Z,19.19
2017-09-06T16:58:13.504Z,19.18
2017-09-06T16:59:13.939Z,19.22
2017-09-06T17:00:14.377Z,19.11
2017-09-06T17:01:14.814Z,19.12
2017-09-06T17:02:15.248Z,19.15
2017-09-06T17:03:15.688Z,19.12
2017-09-06T17:04:16.123Z,19.00
2017-09-06T17:05:16.554Z,18.98
2017-09-06T17:06:16.998Z,19.07
2017-09-06T17:07:17.431Z,19.14
2017-09-06T17:08:20.732Z,19.07
2017-09-06T17:09:18.305Z,18.98
2017-09-06T17:10:18.743Z,19.00
2017-09-06T17:11:19.174Z,19.11
2017-09-06T17:12:19.608Z,19.02
2017-09-06T17:13:20.050Z,18.75
2017-09-06T17:14:20.483Z,18.84
2017-09-06T17:15:20.923Z,18.90
2017-09-06T17:16:21.358Z,18.83
2017-09-06T17:17:21.790Z,18.83
2017-09-06T17:18:22.224Z,18.81
2017-09-06T17:19:22.665Z,18.70
2017-09-06T17:20:23.101Z,18.74
2017-09-06T17:21:25.238Z,18.75
2017-09-06T17:22:26.739Z,18.71
2017-09-06T17:23:24.407Z,18.65
2017-09-06T17:24:24.850Z,18.75
2017-09-06T17:25:27.238Z,18.62
2017-09-06T17:26:25.719Z,18.70
2017-09-06T17:27:26.153Z,18.55
2017-09-06T17:28:26.593Z,18.63
2017-09-06T17:29:27.024Z,18.55
2017-09-06T17:30:30.242Z,18.59
2017-09-06T17:31:27.893Z,18.53
2017-09-06T17:32:28.334Z,18.44
2017-09-06T17:33:28.766Z,18.37
2017-09-06T17:34:29.209Z,18.25
2017-09-06T17:35:29.645Z,18.29
2017-09-06T17:36:31.752Z,18.22
2017-09-06T17:37:30.505Z,18.11
2017-09-06T17:38:30.940Z,18.00
2017-09-06T17:39:31.376Z,18.04
2017-09-06T17:40:31.811Z,17.94
2017-09-06T17:41:32.254Z,17.86
2017-09-06T17:42:32.693Z,17.82
2017-09-06T17:43:33.121Z,17.82
2017-09-06T17:44:33.553Z,17.74
2017-09-06T17:45:33.987Z,17.72
2017-09-06T17:46:34.418Z,17.74
2017-09-06T17:47:34.852Z,17.71
2017-09-06T17:48:35.288Z,17.70
2017-09-06T17:49:35.727Z,17.67
2017-09-06T17:50:36.159Z,17.74
2017-09-06T17:51:36.592Z,17.65
2017-09-06T17:52:37.027Z,17.68
2017-09-06T17:53:37.461Z,17.70
2017-09-06T17:54:37.894Z,17.63
2017-09-06T17:55:38.332Z,17.57
2017-09-06T17:56:38.775Z,17.64
2017-09-06T17:57:39.200Z,17.71
2017-09-06T17:58:39.635Z,17.57
2017-09-06T17:59:40.067Z,17.74
2017-09-06T18:00:40.501Z,17.63
2017-09-06T18:01:40.937Z,17.57
2017-09-06T18:02:41.373Z,17.74
2017-09-06T18:03:41.816Z,17.64
2017-09-06T18:04:42.239Z,17.60
2017-09-06T18:05:42.684Z,17.59
2017-09-06T18:06:43.110Z,17.60
2017-09-06T18:07:43.537Z,17.59
2017-09-06T18:08:43.977Z,17.63
2017-09-06T18:09:44.422Z,17.59
2017-09-06T18:10:44.844Z,17.59
2017-09-06T18:11:45.273Z,17.63
2017-09-06T18:12:45.709Z,17.60
2017-09-06T18:13:46.146Z,17.64
2017-09-06T18:14:46.580Z,17.63
2017-09-06T18:15:47.021Z,17.60
2017-09-06T18:16:47.446Z,17.49
2017-09-06T18:17:47.889Z,17.63
2017-09-06T18:18:48.313Z,17.59
2017-09-06T18:19:48.749Z,17.57
2017-09-06T18:20:49.195Z,17.49
2017-09-06T18:21:49.619Z,17.60
2017-09-06T18:22:50.048Z,17.49
2017-09-06T18:23:50.506Z,17.48
2017-09-06T18:24:50.920Z,17.41
2017-09-06T18:25:51.361Z,17.49
2017-09-06T18:26:51.794Z,17.39
2017-09-06T18:27:52.225Z,17.33
2017-09-06T18:28:52.659Z,17.29
2017-09-06T18:29:53.113Z,17.29
2017-09-06T18:30:53.526Z,17.24
2017-09-06T18:31:53.973Z,17.36
2017-09-06T18:32:54.397Z,17.34
2017-09-06T18:33:54.868Z,17.23
2017-09-06T18:34:55.276Z,17.26
2017-09-06T18:35:55.708Z,17.30
2017-09-06T18:36:56.152Z,17.27
2017-09-06T18:37:56.599Z,17.20
2017-09-06T18:38:56.997Z,17.16
2017-09-06T18:39:57.456Z,17.23
2017-09-06T18:40:57.873Z,17.20
2017-09-06T18:41:58.299Z,17.29
2017-09-06T18:42:58.764Z,17.23
2017-09-06T18:43:59.178Z,17.31
2017-09-06T18:44:59.635Z,17.33
2017-09-06T18:46:00.063Z,17.22
2017-09-06T18:47:00.486Z,17.22
2017-09-06T18:48:00.920Z,17.22
2017-09-06T18:49:01.355Z,17.27
2017-09-06T18:50:01.773Z,17.27
2017-09-06T18:51:02.253Z,17.31
2017-09-06T18:52:02.667Z,17.23
2017-09-06T18:53:03.080Z,17.26
2017-09-06T18:54:03.520Z,17.23
2017-09-06T18:55:03.977Z,17.26
2017-09-06T18:56:04.404Z,17.20
2017-09-06T18:57:04.832Z,17.19
2017-09-06T18:58:05.258Z,17.14
2017-09-06T18:59:05.691Z,17.08
2017-09-06T19:00:06.144Z,17.08
2017-09-06T19:01:06.568Z,17.11
2017-09-06T19:02:07.000Z,17.05
2017-09-06T19:03:07.463Z,16.99
2017-09-06T19:04:07.873Z,16.97
2017-09-06T19:05:08.302Z,16.93
2017-09-06T19:06:08.728Z,16.99
2017-09-06T19:07:09.186Z,16.91
2017-09-06T19:08:09.594Z,16.96
2017-09-06T19:09:10.037Z,16.93
2017-09-06T19:10:10.467Z,16.99
2017-09-06T19:11:10.903Z,16.90
2017-09-06T19:12:11.332Z,16.83
2017-09-06T19:13:11.778Z,16.83
2017-09-06T19:14:12.198Z,16.79
2017-09-06T19:15:12.640Z,16.81
2017-09-06T19:16:13.046Z,16.71
2017-09-06T19:17:13.488Z,16.75
2017-09-06T19:18:13.919Z,16.79
2017-09-06T19:19:14.344Z,16.81
2017-09-06T19:20:14.783Z,16.75
2017-09-06T19:21:15.234Z,16.78
2017-09-06T19:22:15.645Z,16.76
2017-09-06T19:23:16.083Z,16.71
2017-09-06T19:24:16.508Z,16.66
2017-09-06T19:25:16.948Z,16.64
2017-09-06T19:26:17.422Z,16.66
2017-09-06T19:27:17.811Z,16.65
2017-09-06T19:28:18.249Z,16.69
2017-09-06T19:29:18.681Z,16.69
2017-09-06T19:30:19.112Z,16.56
2017-09-06T19:31:19.546Z,16.61
2017-09-06T19:32:19.978Z,16.66
2017-09-06T19:33:20.413Z,16.66
2017-09-06T19:34:20.847Z,16.68
2017-09-06T19:35:21.282Z,16.64
2017-09-06T19:36:21.709Z,16.68
2017-09-06T19:37:22.184Z,16.66
2017-09-06T19:38:22.581Z,16.57
2017-09-06T19:39:23.011Z,16.51
2017-09-06T19:40:23.439Z,16.53
2017-09-06T19:41:23.893Z,16.53
2017-09-06T19:42:24.319Z,16.49
2017-09-06T19:43:24.742Z,16.43
2017-09-06T19:44:25.198Z,16.51
2017-09-06T19:45:25.623Z,16.56
2017-09-06T19:46:26.039Z,16.53
2017-09-06T19:47:26.487Z,16.35
2017-09-06T19:48:26.933Z,16.32
2017-09-06T19:49:27.366Z,16.35
2017-09-06T19:50:27.789Z,16.39
2017-09-06T19:51:28.205Z,16.36
2017-09-06T19:52:28.642Z,16.50
2017-09-06T19:53:29.077Z,16.47
2017-09-06T19:54:29.506Z,16.32
2017-09-06T19:55:29.937Z,16.36
2017-09-06T19:56:30.395Z,16.39
2017-09-06T19:57:30.845Z,16.32
2017-09-06T19:58:31.247Z,16.26
2017-09-06T19:59:31.695Z,16.23
2017-09-06T20:00:32.143Z,16.15
2017-09-06T20:01:32.550Z,16.20
2017-09-06T20:02:32.965Z,16.13
2017-09-06T20:03:33.485Z,16.24
2017-09-06T20:04:33.854Z,16.21
2017-09-06T20:05:34.268Z,16.09
2017-09-06T20:06:34.717Z,16.09
2017-09-06T20:07:35.139Z,16.10
2017-09-06T20:08:35.589Z,16.05
2017-09-06T20:09:36.000Z,16.09
2017-09-06T20:10:36.471Z,16.15
2017-09-06T20:11:36.861Z,16.05
2017-09-06T20:12:37.292Z,16.05
2017-09-06T20:13:37.723Z,16.02
2017-09-06T20:14:38.162Z,15.98
2017-09-06T20:15:38.593Z,16.00
2017-09-06T20:16:39.052Z,15.95
2017-09-06T20:17:39.454Z,15.92
2017-09-06T20:18:39.885Z,16.01
2017-09-06T20:19:40.333Z,16.04
2017-09-06T20:20:40.758Z,16.09
2017-09-06T20:21:41.185Z,16.00
2017-09-06T20:22:41.614Z,16.04
2017-09-06T20:23:42.050Z,16.05
2017-09-06T20:24:42.483Z,15.97
2017-09-06T20:25:42.920Z,15.97
2017-09-06T20:26:43.348Z,15.97
2017-09-06T20:27:43.786Z,15.88
2017-09-06T20:28:44.222Z,15.97
2017-09-06T20:29:44.651Z,15.94
2017-09-06T20:30:45.081Z,15.97
2017-09-06T20:31:45.511Z,15.95
2017-09-06T20:32:45.949Z,15.88
2017-09-06T20:33:46.380Z,15.90
2017-09-06T20:34:46.807Z,15.92
2017-09-06T20:35:47.238Z,15.95
2017-09-06T20:36:47.671Z,15.94
2017-09-06T20:37:48.105Z,15.94
2017-09-06T20:38:48.541Z,16.00
2017-09-06T20:39:49.043Z,15.97
2017-09-06T20:40:49.406Z,15.92
2017-09-06T20:41:49.841Z,15.94
2017-09-06T20:42:50.265Z,15.94
2017-09-06T20:43:50.699Z,16.00
2017-09-06T20:44:51.130Z,16.01
2017-09-06T20:45:51.566Z,15.97
2017-09-06T20:46:51.997Z,16.01
2017-09-06T20:47:52.424Z,16.01
2017-09-06T20:48:52.859Z,15.95
2017-09-06T20:49:53.299Z,15.97
2017-09-06T20:50:53.728Z,16.01
2017-09-06T20:51:54.158Z,15.97
2017-09-06T20:52:54.641Z,16.09
2017-09-06T20:53:55.024Z,16.00
2017-09-06T20:54:55.450Z,15.98
2017-09-06T20:55:55.886Z,16.04
2017-09-06T20:56:56.318Z,16.09
2017-09-06T20:57:56.749Z,16.08
2017-09-06T20:58:57.183Z,16.09
2017-09-06T20:59:57.612Z,16.16
2017-09-06T21:00:58.044Z,16.08
2017-09-06T21:01:58.481Z,16.12
2017-09-06T21:02:58.914Z,16.16
2017-09-06T21:03:59.342Z,16.05
2017-09-06T21:04:59.772Z,16.13
2017-09-06T21:06:00.213Z,16.16
2017-09-06T21:07:00.641Z,16.02
2017-09-06T21:08:01.076Z,16.04
2017-09-06T21:09:01.517Z,16.04
2017-09-06T21:10:01.941Z,16.10
2017-09-06T21:11:02.369Z,16.09
2017-09-06T21:12:02.800Z,16.13
2017-09-06T21:13:03.236Z,16.12
2017-09-06T21:14:03.669Z,16.21
2017-09-06T21:15:04.107Z,16.13
2017-09-06T21:16:04.537Z,16.15
2017-09-06T21:17:04.965Z,16.13
2017-09-06T21:18:05.402Z,16.23
2017-09-06T21:19:05.825Z,16.10
2017-09-06T21:20:06.262Z,16.12
2017-09-06T21:21:06.691Z,16.15
2017-09-06T21:22:07.128Z,16.13
2017-09-06T21:23:07.557Z,16.21
2017-09-06T21:24:07.995Z,16.15
2017-09-06T21:25:08.428Z,16.12
2017-09-06T21:26:08.863Z,16.13
2017-09-06T21:27:09.290Z,16.13
2017-09-06T21:28:09.725Z,16.12
2017-09-06T21:29:10.159Z,16.17
2017-09-06T21:30:10.590Z,16.20
2017-09-06T21:31:11.025Z,16.15
2017-09-06T21:32:11.453Z,16.23
2017-09-06T21:33:11.886Z,16.16
2017-09-06T21:34:12.323Z,16.16
2017-09-06T21:35:12.750Z,16.24
2017-09-06T21:36:13.181Z,16.10
2017-09-06T21:37:13.619Z,16.09
2017-09-06T21:38:14.053Z,15.95
2017-09-06T21:39:14.496Z,16.01
2017-09-06T21:40:14.917Z,16.15
2017-09-06T21:41:15.351Z,16.12
2017-09-06T21:42:15.781Z,16.04
2017-09-06T21:43:16.226Z,16.12
2017-09-06T21:44:16.646Z,16.12
2017-09-06T21:45:17.075Z,16.13
2017-09-06T21:46:17.513Z,16.10
2017-09-06T21:47:17.942Z,16.08
2017-09-06T21:48:18.376Z,16.04
2017-09-06T21:49:18.810Z,16.13
2017-09-06T21:50:19.245Z,16.04
2017-09-06T21:51:19.676Z,16.12
2017-09-06T21:52:20.115Z,16.16
2017-09-06T21:53:20.538Z,16.12
2017-09-06T21:54:20.973Z,16.13
2017-09-06T21:55:21.416Z,16.13
2017-09-06T21:56:21.840Z,16.15
2017-09-06T21:57:22.270Z,16.13
2017-09-06T21:58:22.702Z,16.00
2017-09-06T21:59:23.132Z,15.90
2017-09-06T22:00:23.564Z,15.90
2017-09-06T22:01:23.997Z,16.00
2017-09-06T22:02:24.435Z,16.10
2017-09-06T22:03:24.871Z,15.97
2017-09-06T22:04:25.301Z,16.02
2017-09-06T22:05:25.736Z,16.09
2017-09-06T22:06:26.163Z,16.02
2017-09-06T22:07:26.593Z,16.21
2017-09-06T22:08:27.030Z,16.01
2017-09-06T22:09:27.465Z,15.95
2017-09-06T22:10:27.896Z,15.91
2017-09-06T22:11:28.332Z,15.91
2017-09-06T22:12:28.755Z,15.84
2017-09-06T22:13:29.194Z,15.90
2017-09-06T22:14:29.622Z,15.80
2017-09-06T22:15:30.051Z,15.80
2017-09-06T22:16:30.488Z,15.75
2017-09-06T22:17:30.919Z,15.65
2017-09-06T22:18:31.354Z,15.75
2017-09-06T22:19:31.786Z,15.83
2017-09-06T22:20:32.226Z,15.72
2017-09-06T22:21:32.679Z,15.86
2017-09-06T22:22:33.089Z,15.75
2017-09-06T22:23:33.520Z,15.70
2017-09-06T22:24:33.949Z,15.70
2017-09-06T22:25:34.380Z,15.76
2017-09-06T22:26:34.819Z,15.75
2017-09-06T22:27:35.247Z,15.70
2017-09-06T22:28:35.684Z,15.70
2017-09-06T22:29:36.109Z,15.72
2017-09-06T22:30:36.540Z,15.59
2017-09-06T22:31:36.974Z,15.61
2017-09-06T22:32:37.412Z,15.64
2017-09-06T22:33:37.841Z,15.62
2017-09-06T22:34:38.273Z,15.68
2017-09-06T22:35:38.732Z,15.65
2017-09-06T22:36:39.139Z,15.59
2017-09-06T22:37:39.571Z,15.52
2017-09-06T22:38:39.997Z,15.43
2017-09-06T22:39:40.435Z,15.43
2017-09-06T22:40:40.866Z,15.44
2017-09-06T22:41:41.298Z,15.47
2017-09-06T22:42:41.737Z,15.54
2017-09-06T22:43:42.163Z,15.58
2017-09-06T22:44:42.595Z,15.58
2017-09-06T22:45:43.020Z,15.61
2017-09-06T22:46:43.460Z,15.61
2017-09-06T22:47:44.044Z,15.59
2017-09-06T22:48:44.328Z,15.55
2017-09-06T22:49:44.753Z,15.47
2017-09-06T22:50:45.195Z,15.47
2017-09-06T22:51:45.619Z,15.54
2017-09-06T22:52:46.050Z,15.52
2017-09-06T22:53:46.483Z,15.49
2017-09-06T22:54:46.920Z,15.51
2017-09-06T22:55:47.351Z,15.49
2017-09-06T22:56:47.780Z,15.39
2017-09-06T22:57:48.209Z,15.44
2017-09-06T22:58:48.651Z,15.37
2017-09-06T22:59:49.079Z,15.40
2017-09-06T23:00:49.510Z,15.25
2017-09-06T23:01:49.938Z,15.25
2017-09-06T23:02:50.372Z,15.25
2017-09-06T23:03:50.806Z,15.44
2017-09-06T23:04:51.237Z,15.42
2017-09-06T23:05:51.674Z,15.46
2017-09-06T23:06:52.103Z,15.27
2017-09-06T23:07:52.536Z,15.36
2017-09-06T23:08:52.968Z,15.37
2017-09-06T23:09:53.406Z,15.37
2017-09-06T23:10:53.830Z,15.31
2017-09-06T23:11:54.260Z,15.21
2017-09-06T23:12:54.696Z,15.15
2017-09-06T23:13:55.133Z,15.21
2017-09-06T23:14:55.555Z,15.19
2017-09-06T23:15:55.987Z,15.21
2017-09-06T23:16:56.419Z,15.28
2017-09-06T23:17:56.856Z,15.17
2017-09-06T23:18:57.289Z,15.18
2017-09-06T23:19:57.713Z,15.06
2017-09-06T23:20:58.160Z,15.15
2017-09-06T23:21:58.581Z,15.11
2017-09-06T23:22:59.018Z,15.09
2017-09-06T23:23:59.443Z,15.09
2017-09-06T23:24:59.878Z,15.17
2017-09-06T23:26:00.306Z,15.18
2017-09-06T23:27:00.736Z,15.10
2017-09-06T23:28:01.174Z,15.17
2017-09-06T23:29:01.603Z,15.15
2017-09-06T23:30:02.040Z,15.17
2017-09-06T23:31:02.467Z,15.21
2017-09-06T23:32:02.897Z,15.03
2017-09-06T23:33:03.331Z,15.03
2017-09-06T23:34:03.764Z,15.15
2017-09-06T23:35:04.199Z,15.11
2017-09-06T23:36:04.623Z,15.03
2017-09-06T23:37:05.057Z,15.00
2017-09-06T23:38:05.488Z,14.97
2017-09-06T23:39:05.921Z,15.07